Byron Hills, Illinois
Current Conditions -  °F | °C
As of 7:52 PM on Sunday 25 Jan 2015 (Local Time) from KDVN Reporting Station
Clear Clear  
Wind Chill:   Ceiling: Unl
Heat Index: 17°   Visibility: 10mi
Dew Point: 11°   Wind: 9mph
Humidity: 77%   Direction: 350°N
Pressure: 30.04"   Gusts: NA
Location:  41.595°N, 90.2974°W
Report Text: KDVN 260152Z AUTO 35008KT 10SM CLR M08/M12 A3004 RMK AO2 SLP182 T10831117
Loading
Personal Weather Stations






























Interactive Weather Map New forecast layout! Learn more

10-Day Weather Forecast

Advertisements
Track Severe Weather on mobile